Chicago, Illinois
Traffic Map
Current Weather Conditions
Chicago, Illinois
Broken Clouds
Broken Clouds
24°
Feels Like: 9°
Wind Chill: Ceiling: 2300
Heat Index: 24° Visibility: 10mi
Dew Point: 14° Wind: 22mph
Humidity: 65% Direction: 270° (W)
Pressure: 30.15in Gusts: 32mph
Raw Report DataKMDW 080153Z 27019G28KT 10SM BKN023 BKN150 M04/M10 A3015 RMK AO2 PK WND 26028/0145 SLP225 T10441100
Traffic Incident Summary
Active as of:
Severity:
Category:
InformationThere was an issue retrieving the traffic information for this location. Please try a different location or try again shortly.
Advertisements
Track Severe Weather on mobile